LFOELFRS

Guest
Details From LFOE - FAUVILLE
To LFRS - Nantes_Atlantique
Flight Number -
Tags generated
Created
Modified
Stats Distance 160 nm / 296 km
Max Altitude 6,000 ft / 1,829 m
Waypoints 3
Social Downloads 1
Likes 0
Share VATSIM

Download

Looking for another format? Having issues loading an existing format? Contact us
Advertisement - Login to hide

Notes

Basic altitude profile: - Ascent Rate: 2500ft/min - Ascent Speed: 250kts - Cruise Altitude: 6000ft - Cruise Speed: 420kts - Descent Rate: 1500ft/min - Descent Speed: 250kts

Route

LFOE OBATO LFRS

ID Type Via Altitude Latitude Longitude Leg Dist Tot Dist Heading (true) Name
O LFOE APT - 0 ft / 0 m 49.02867˚ 1.21987˚ - 0 nm - FAUVILLE
OBATO FIX - 6,000 ft / 1,829 m 48.06694˚ -0.25000˚ 82 nm 82 nm 226° / 225° -
O LFRS APT - 0 ft / 0 m 47.15604˚ -1.61119˚ 77 nm 159 nm 226° / 225° Nantes_Atlantique

Altitude Profile

Advertisement - Login to hide

LFOE

Details ICAO LFOE
Name FAUVILLE
Region France
Timezone Europe/Paris (UTC+2.0)
Stats Elevation 464 ft / 141 m (AMSL)
Location 49.028669° 1.219866°
Runways 1
Magnetic Variation 0.286° E

METAR

LFOE 261530Z AUTO 09008KT CAVOK 26/15 Q1014 TEMPO VRB15G25KT 3000 SHRA BKN030CB

Decode

TAF

TAF TAF LFOE 261400Z 2615/2715 13015KT CAVOK TEMPO 2615/2704 VRB15G25KT 3000 SHRA BKN030CB PROB40 TEMPO 2618/2703 VRB20G30KT 2000 TSRA TEMPO 2712/2715 VRB15G25KT 3000 SHRA BKN030CB PROB40 TEMPO 2712/2715 VRB20G30KT 2000 TSRA

Decode

Departure Runways

ID Width Length Bearing (true) Bearing (mag) Surface Threshold Offset Overrun Length
04 148 ft / 45 m 9,836 ft / 2,998 m 39.78° 39.49° Asphalt 0 ft / 0 m 0 ft / 0 m
22 148 ft / 45 m 9,836 ft / 2,998 m 219.80° 219.51° Asphalt 0 ft / 0 m 0 ft / 0 m

LFRS

Details ICAO LFRS (NTE)
Name Nantes_Atlantique
Region France
Timezone Europe/Paris (UTC+2.0)
Stats Elevation 89 ft / 27 m (AMSL)
Location 47.156040° -1.611186°
Runways 2
Magnetic Variation 0.450° W

METAR

LFRS 261530Z AUTO 17005KT 150V210 9999 BKN046/// OVC120/// ///CB 24/16 Q1011 TEMPO VRB15G30KT 3000 TSRA

Decode

TAF

TAF LFRS 261100Z 2612/2718 05006KT 9999 SCT020 BKN050 TEMPO 2612/2621 VRB15G30KT 3000 TSRA BKN025CB PROB40 TEMPO 2614/2618 TSRAGR TEMPO 2700/2710 3000 BR BKN003 PROB30 TEMPO 2703/2706 0600 FG VV///

Decode

Destination Runways

ID Width Length Bearing (true) Bearing (mag) Surface Threshold Offset Overrun Length
03 148 ft / 45 m 9,526 ft / 2,903 m 27.35° 27.80° Asphalt 0 ft / 0 m 0 ft / 0 m
13 100 ft / 30 m 1,999 ft / 609 m 125.55° 126.00° Concrete 0 ft / 0 m 0 ft / 0 m
21 148 ft / 45 m 9,526 ft / 2,903 m 207.37° 207.82° Asphalt 689 ft / 210 m 0 ft / 0 m
31 100 ft / 30 m 1,999 ft / 609 m 305.56° 306.01° Concrete 0 ft / 0 m 0 ft / 0 m

Approach Navaids

Runway Type Ident Frequency Range Bearing (true) Bearing (mag) Slope Elevation
03 Localiser NT 109.90 MHz 27 nm / 50 km 27.42° 27.87° - 89 ft / 27 m (AMSL)
03 Glidescope NT 109.90 MHz 27 nm / 50 km 27.42° 27.87° 3.00° 89 ft / 27 m (AMSL)
03 DME NT 109.90 MHz 27 nm / 50 km - - - 89 ft / 27 m (AMSL)